Time;durP1;ratioP1;P1;durP2;ratioP2;P2;SDS_P1;SDS_P2;PMS_P1;PMS_P2;Temp;Humidity;BMP_temperature;BMP_pressure;BME280_temperature;BME280_humidity;BME280_pressure;Samples;Min_cycle;Max_cycle;Signal;HPM_P1;HPM_P2
2022/12/02 00:00:49;;;;;;;22.50;13.63;;;-0.70;99.90;;;;;;4998867;28;20232;-70
2022/12/02 00:03:21;;;;;;;21.07;13.23;;;-0.70;99.90;;;;;;5001397;28;20735;-70
2022/12/02 00:05:49;;;;;;;21.40;12.93;;;-0.70;99.90;;;;;;4992765;28;20599;-69
2022/12/02 00:08:19;;;;;;;23.27;13.17;;;-0.70;99.90;;;;;;4997931;28;20283;-70
2022/12/02 00:10:47;;;;;;;16.83;11.43;;;-0.80;99.90;;;;;;4991140;28;20302;-72
2022/12/02 00:13:21;;;;;;;19.73;11.67;;;-0.80;99.90;;;;;;4996444;28;20219;-73
2022/12/02 00:15:51;;;;;;;18.07;10.97;;;-0.80;99.90;;;;;;5005710;28;20209;-74
2022/12/02 00:18:19;;;;;;;20.70;11.80;;;-0.80;99.90;;;;;;4994956;28;20208;-74
2022/12/02 00:20:46;;;;;;;18.00;11.67;;;0.30;99.90;;;;;;5008283;28;20204;-72
2022/12/02 00:23:13;;;;;;;16.87;9.87;;;-0.80;99.90;;;;;;4999172;28;20214;-75
2022/12/02 00:25:41;;;;;;;19.03;11.30;;;-0.90;99.90;;;;;;4996382;28;20272;-73
2022/12/02 00:28:08;;;;;;;16.93;10.40;;;-0.90;99.90;;;;;;5006156;28;20227;-71
2022/12/02 00:30:34;;;;;;;15.13;9.97;;;-1.00;99.90;;;;;;4997077;28;20199;-72
2022/12/02 00:33:01;;;;;;;17.43;10.97;;;-1.00;99.90;;;;;;4992326;28;20653;-73
2022/12/02 00:35:29;;;;;;;17.13;10.47;;;-1.10;99.90;;;;;;4991670;28;20579;-74
2022/12/02 00:37:56;;;;;;;17.07;10.47;;;-1.10;99.90;;;;;;5004260;28;20231;-73
2022/12/02 00:40:23;;;;;;;17.43;11.00;;;-1.10;99.90;;;;;;5004772;28;20234;-73
2022/12/02 00:42:50;;;;;;;16.93;10.90;;;-1.10;99.90;;;;;;4997873;28;20214;-74
2022/12/02 00:48:01;;;;;;;16.97;10.90;;;-1.10;99.90;;;;;;5001468;28;20230;-74
2022/12/02 00:50:29;;;;;;;19.87;10.27;;;-1.10;99.90;;;;;;4994191;28;20216;-72
2022/12/02 00:52:56;;;;;;;19.47;10.63;;;-1.10;99.90;;;;;;5005243;28;20211;-73
2022/12/02 00:55:23;;;;;;;16.83;10.27;;;-1.10;99.90;;;;;;5009631;28;20683;-75
2022/12/02 00:57:50;;;;;;;20.30;11.37;;;-1.10;99.90;;;;;;4999537;28;20231;-72
2022/12/02 01:00:17;;;;;;;16.20;10.53;;;-1.10;99.90;;;;;;4990974;28;20231;-73
2022/12/02 01:02:44;;;;;;;17.97;10.77;;;-1.10;99.90;;;;;;4993742;28;20240;-74
2022/12/02 01:05:11;;;;;;;19.97;11.40;;;-1.00;99.90;;;;;;4990692;28;20208;-70
2022/12/02 01:07:39;;;;;;;19.90;11.57;;;-1.00;99.90;;;;;;4996651;28;20208;-73
2022/12/02 01:10:07;;;;;;;18.20;10.53;;;-1.00;99.90;;;;;;4990077;28;20687;-71
2022/12/02 01:12:37;;;;;;;17.47;11.43;;;-1.00;99.90;;;;;;4994113;28;20549;-74
2022/12/02 01:15:04;;;;;;;17.10;10.27;;;-1.00;99.90;;;;;;4993974;28;20207;-73
2022/12/02 01:17:31;;;;;;;16.50;10.33;;;-1.00;99.90;;;;;;4990579;28;20596;-71
2022/12/02 01:19:58;;;;;;;16.10;10.13;;;-0.90;99.90;;;;;;4992256;28;20211;-72
2022/12/02 01:22:24;;;;;;;16.00;10.50;;;-0.90;99.90;;;;;;4990607;28;20227;-75
2022/12/02 01:24:53;;;;;;;17.10;11.47;;;-1.00;99.90;;;;;;4991668;28;20437;-73
2022/12/02 01:27:20;;;;;;;17.10;10.37;;;-0.90;99.90;;;;;;4996206;28;20246;-74
2022/12/02 01:29:46;;;;;;;15.83;10.43;;;-0.90;99.90;;;;;;4989744;28;20204;-75
2022/12/02 01:32:13;;;;;;;16.07;9.40;;;-0.90;99.90;;;;;;4990569;28;20223;-73
2022/12/02 01:34:41;;;;;;;17.83;10.03;;;-0.90;99.90;;;;;;4997331;28;20584;-72
2022/12/02 01:37:08;;;;;;;17.63;10.30;;;-0.90;99.90;;;;;;4989163;28;20289;-75
2022/12/02 01:39:34;;;;;;;14.00;10.10;;;-1.00;99.90;;;;;;4991752;28;20208;-73
2022/12/02 01:42:03;;;;;;;14.70;9.90;;;-1.00;99.90;;;;;;4989534;28;20214;-74
2022/12/02 01:44:30;;;;;;;15.00;9.50;;;-1.00;99.90;;;;;;4990097;28;20696;-72
2022/12/02 01:46:57;;;;;;;17.70;9.57;;;-1.00;99.90;;;;;;4999221;28;20656;-75
2022/12/02 01:49:24;;;;;;;16.03;9.67;;;-0.90;99.90;;;;;;5006727;28;20203;-73
2022/12/02 01:51:51;;;;;;;16.03;10.10;;;-1.00;99.90;;;;;;5006785;28;20208;-74
2022/12/02 01:54:18;;;;;;;14.87;10.07;;;-1.00;99.90;;;;;;5008914;28;20213;-72
2022/12/02 01:56:44;;;;;;;17.97;10.70;;;-1.00;99.90;;;;;;4991514;28;20235;-72
2022/12/02 01:59:16;;;;;;;16.23;10.20;;;-1.00;99.90;;;;;;5002315;28;20215;-73
2022/12/02 02:01:44;;;;;;;16.70;9.70;;;-1.00;99.90;;;;;;5005950;28;20251;-74
2022/12/02 02:04:11;;;;;;;16.20;10.27;;;-1.00;99.90;;;;;;4994799;28;20254;-74
2022/12/02 02:06:41;;;;;;;13.97;9.50;;;-1.00;99.90;;;;;;4998752;28;20212;-71
2022/12/02 02:09:09;;;;;;;13.10;9.20;;;-1.10;99.90;;;;;;4997332;28;20218;-74
2022/12/02 02:11:38;;;;;;;13.90;9.93;;;-1.10;99.90;;;;;;4990531;28;20210;-74
2022/12/02 02:14:07;;;;;;;14.07;9.60;;;-1.50;99.90;;;;;;4993143;28;20211;-73
2022/12/02 02:16:36;;;;;;;16.00;9.97;;;-1.10;99.90;;;;;;5001547;28;20231;-76
2022/12/02 02:19:05;;;;;;;15.07;9.20;;;-1.10;99.90;;;;;;5005283;28;20700;-75
2022/12/02 02:21:36;;;;;;;15.17;9.93;;;-1.10;99.90;;;;;;4990015;28;20204;-72
2022/12/02 02:24:05;;;;;;;15.40;9.83;;;-1.10;99.90;;;;;;5003851;28;20254;-72
2022/12/02 02:26:32;;;;;;;13.50;9.37;;;-1.10;99.90;;;;;;4998601;28;20212;-72
2022/12/02 02:28:59;;;;;;;16.73;9.87;;;-1.10;99.90;;;;;;5006351;28;20222;-71
2022/12/02 02:31:26;;;;;;;15.03;10.27;;;-1.10;99.90;;;;;;4993235;28;20204;-71
2022/12/02 02:33:53;;;;;;;14.07;9.67;;;-1.10;99.90;;;;;;5005057;28;20207;-71
2022/12/02 02:36:20;;;;;;;14.27;9.67;;;-1.20;99.90;;;;;;4993622;28;20218;-72
2022/12/02 02:38:48;;;;;;;15.60;9.77;;;-1.20;99.90;;;;;;4994904;28;20208;-71
2022/12/02 02:41:16;;;;;;;16.27;9.23;;;-1.20;99.90;;;;;;5005444;28;20215;-72
2022/12/02 02:43:43;;;;;;;14.50;9.37;;;-1.20;99.90;;;;;;4999065;28;20212;-71
2022/12/02 02:46:10;;;;;;;14.50;9.40;;;-1.20;99.90;;;;;;4998827;28;20208;-71
2022/12/02 02:48:38;;;;;;;14.17;9.00;;;-1.20;99.90;;;;;;4996114;28;20645;-71
2022/12/02 02:51:06;;;;;;;15.90;10.37;;;-1.20;99.90;;;;;;5001314;28;20208;-71
2022/12/02 02:53:32;;;;;;;13.93;9.10;;;-1.20;99.90;;;;;;4993823;28;20218;-71
2022/12/02 02:55:59;;;;;;;13.50;9.17;;;-1.20;99.90;;;;;;5004264;28;20219;-72
2022/12/02 02:58:28;;;;;;;17.47;10.47;;;-1.20;99.90;;;;;;4991599;28;20234;-74
2022/12/02 03:00:58;;;;;;;17.30;10.20;;;-1.20;99.90;;;;;;4995293;28;20274;-74
2022/12/02 03:03:29;;;;;;;15.50;9.70;;;-1.20;99.90;;;;;;5007926;28;20238;-71
2022/12/02 03:05:57;;;;;;;14.37;9.10;;;-1.20;99.90;;;;;;5001072;28;20230;-72
2022/12/02 03:08:25;;;;;;;17.67;10.00;;;-1.20;99.90;;;;;;5007149;28;20244;-69
2022/12/02 03:10:54;;;;;;;17.30;9.03;;;-1.20;99.90;;;;;;5000490;28;20212;-69
2022/12/02 03:13:21;;;;;;;13.33;9.43;;;-1.20;99.90;;;;;;5006798;28;20215;-71
2022/12/02 03:15:49;;;;;;;16.27;9.73;;;-1.20;99.90;;;;;;5005727;28;20291;-74
2022/12/02 03:18:16;;;;;;;17.40;10.27;;;-1.20;99.90;;;;;;4995598;28;20220;-73
2022/12/02 03:20:43;;;;;;;15.00;9.87;;;-1.20;99.90;;;;;;5005313;28;20211;-72
2022/12/02 03:23:10;;;;;;;14.23;9.50;;;-1.20;99.90;;;;;;5001525;28;20227;-72
2022/12/02 03:25:37;;;;;;;19.43;9.63;;;-1.20;99.90;;;;;;5005366;28;20589;-72
2022/12/02 03:28:05;;;;;;;15.73;10.73;;;-1.20;99.90;;;;;;5008330;28;20204;-73
2022/12/02 03:30:32;;;;;;;16.47;10.23;;;-1.10;99.90;;;;;;4998652;28;20218;-74
2022/12/02 03:33:00;;;;;;;16.73;10.90;;;-1.00;99.90;;;;;;4997323;28;20691;-73
2022/12/02 03:35:27;;;;;;;18.57;9.93;;;-1.00;99.90;;;;;;5001935;28;20204;-72
2022/12/02 03:37:54;;;;;;;17.30;11.07;;;-0.90;99.90;;;;;;5003802;28;20239;-71
2022/12/02 03:40:22;;;;;;;18.03;10.17;;;-1.00;99.90;;;;;;5004232;28;20239;-73
2022/12/02 03:42:49;;;;;;;16.33;10.63;;;-1.00;99.90;;;;;;5006948;28;20629;-74
2022/12/02 03:45:16;;;;;;;16.50;10.60;;;-1.00;99.90;;;;;;4998041;28;20215;-73
2022/12/02 03:47:43;;;;;;;17.97;10.27;;;-1.00;99.90;;;;;;4993274;28;20200;-73
2022/12/02 03:50:12;;;;;;;20.60;11.37;;;-1.00;99.90;;;;;;4999312;28;20200;-74
2022/12/02 03:52:40;;;;;;;18.40;11.93;;;-0.90;99.90;;;;;;5005028;28;20290;-74
2022/12/02 03:55:07;;;;;;;20.17;10.93;;;-0.90;99.90;;;;;;5005819;28;20212;-73
2022/12/02 03:57:34;;;;;;;16.50;12.07;;;-0.90;99.90;;;;;;4994994;28;20310;-73
2022/12/02 04:00:04;;;;;;;18.87;12.10;;;-0.90;99.90;;;;;;4996578;28;20235;-74
2022/12/02 04:02:30;;;;;;;17.67;10.77;;;-0.90;99.90;;;;;;5002939;28;20914;-72
2022/12/02 04:04:57;;;;;;;17.43;11.27;;;-0.90;99.90;;;;;;5003337;28;20204;-72
2022/12/02 04:07:25;;;;;;;16.60;11.07;;;-1.00;99.90;;;;;;4998059;28;20215;-72
2022/12/02 04:09:52;;;;;;;16.53;11.00;;;-1.00;99.90;;;;;;4993261;28;20215;-72
2022/12/02 04:12:19;;;;;;;18.60;11.47;;;-1.00;99.90;;;;;;5009022;28;20219;-71
2022/12/02 04:14:46;;;;;;;18.03;11.50;;;-1.00;99.90;;;;;;4997117;28;20761;-74
2022/12/02 04:17:12;;;;;;;18.27;10.50;;;-1.00;99.90;;;;;;4997229;28;20596;-72
2022/12/02 04:19:39;;;;;;;21.80;11.63;;;-1.00;99.90;;;;;;4993919;28;20212;-75
2022/12/02 04:22:06;;;;;;;16.93;11.90;;;-1.00;99.90;;;;;;5010685;28;20243;-74
2022/12/02 04:24:34;;;;;;;17.53;11.60;;;-1.00;99.90;;;;;;5007335;28;20208;-72
2022/12/02 04:27:01;;;;;;;21.03;11.43;;;-1.10;99.90;;;;;;5005756;28;20208;-73
2022/12/02 04:29:28;;;;;;;18.60;11.20;;;-1.10;99.90;;;;;;4997932;28;20211;-73
2022/12/02 04:31:54;;;;;;;17.53;11.03;;;-1.10;99.90;;;;;;5001861;28;20647;-73
2022/12/02 04:34:21;;;;;;;18.60;10.87;;;-1.10;99.90;;;;;;4992407;28;20215;-72
2022/12/02 04:36:48;;;;;;;17.50;10.00;;;-1.10;99.90;;;;;;4991923;28;20339;-73
2022/12/02 04:39:15;;;;;;;18.57;11.27;;;-1.10;99.90;;;;;;4995638;28;20242;-72
2022/12/02 04:41:43;;;;;;;19.13;11.17;;;-1.10;99.90;;;;;;4995690;28;20188;-70
2022/12/02 04:44:10;;;;;;;20.03;10.83;;;-1.10;99.90;;;;;;4991236;28;20208;-75
2022/12/02 04:46:36;;;;;;;18.77;11.23;;;-0.30;99.90;;;;;;4991968;28;20237;-71
2022/12/02 04:49:04;;;;;;;20.53;10.37;;;-1.10;99.90;;;;;;4993796;28;20212;-73
2022/12/02 04:51:31;;;;;;;17.57;10.37;;;-1.20;99.90;;;;;;5000494;28;20637;-72
2022/12/02 04:53:58;;;;;;;21.17;10.70;;;-1.20;99.90;;;;;;5012149;28;20211;-73
2022/12/02 04:56:25;;;;;;;19.87;11.63;;;-1.20;99.90;;;;;;4996600;28;20212;-73
2022/12/02 04:58:53;;;;;;;17.90;9.93;;;-1.20;99.90;;;;;;5006284;28;20578;-72
2022/12/02 05:01:20;;;;;;;20.50;11.37;;;-1.30;99.90;;;;;;5006936;28;20897;-71
2022/12/02 05:03:46;;;;;;;15.10;10.17;;;-1.30;99.90;;;;;;5000269;28;20242;-74
2022/12/02 05:06:13;;;;;;;19.27;10.80;;;-1.30;99.90;;;;;;4999149;28;20215;-73
2022/12/02 05:08:40;;;;;;;18.27;11.17;;;-1.30;99.90;;;;;;5009355;28;20218;-72
2022/12/02 05:11:07;;;;;;;19.17;10.20;;;-1.30;99.90;;;;;;5008658;28;20207;-73
2022/12/02 05:13:34;;;;;;;22.47;11.23;;;-1.30;99.90;;;;;;5008754;28;20220;-77
2022/12/02 05:16:02;;;;;;;17.67;10.23;;;-1.30;99.90;;;;;;4992172;28;20208;-72
2022/12/02 05:18:29;;;;;;;17.23;10.80;;;-1.30;99.90;;;;;;4995593;28;20235;-73
2022/12/02 05:20:56;;;;;;;18.63;9.87;;;-1.30;99.90;;;;;;4994346;28;20762;-75
2022/12/02 05:23:23;;;;;;;17.30;10.83;;;-1.30;99.90;;;;;;4998297;28;20561;-72
2022/12/02 05:25:49;;;;;;;18.93;10.93;;;-1.20;99.90;;;;;;4995460;28;20203;-72
2022/12/02 05:28:16;;;;;;;19.20;10.70;;;-1.30;99.90;;;;;;5000276;28;20241;-73
2022/12/02 05:30:43;;;;;;;16.23;9.50;;;-1.30;99.90;;;;;;5000677;28;20230;-73
2022/12/02 05:33:12;;;;;;;17.40;9.23;;;-1.30;99.90;;;;;;5005235;28;20209;-74
2022/12/02 05:35:39;;;;;;;14.37;8.50;;;-1.30;99.90;;;;;;4997635;28;20219;-74
2022/12/02 05:38:05;;;;;;;15.77;9.40;;;-1.30;99.90;;;;;;4994207;28;20235;-73
2022/12/02 05:40:33;;;;;;;17.50;10.03;;;-1.40;99.90;;;;;;5006436;28;20234;-74
2022/12/02 05:43:13;;;;;;;14.93;9.00;;;-1.40;99.90;;;;;;5001786;28;20283;-75
2022/12/02 05:45:40;;;;;;;14.07;9.70;;;-1.40;99.90;;;;;;4997978;28;20567;-72
2022/12/02 05:48:13;;;;;;;16.07;9.07;;;-1.40;99.90;;;;;;5006992;28;20203;-73
2022/12/02 05:50:40;;;;;;;15.27;9.00;;;-1.40;99.90;;;;;;4996050;28;20208;-73
2022/12/02 05:53:10;;;;;;;13.17;9.10;;;-1.40;99.90;;;;;;4995083;28;20302;-73
2022/12/02 05:55:37;;;;;;;13.67;8.90;;;-1.50;99.90;;;;;;5001268;28;20214;-71
2022/12/02 05:58:07;;;;;;;17.47;10.10;;;-1.50;99.90;;;;;;4994555;28;20231;-71
2022/12/02 06:00:36;;;;;;;15.53;9.70;;;-1.50;99.90;;;;;;4990319;28;20243;-74
2022/12/02 06:03:08;;;;;;;16.83;10.50;;;-1.60;99.90;;;;;;4994159;28;20326;-73
2022/12/02 06:05:41;;;;;;;18.13;9.37;;;-1.60;99.90;;;;;;4991680;28;20686;-68
2022/12/02 06:08:15;;;;;;;15.47;9.47;;;-1.60;99.90;;;;;;5004974;28;20227;-73
2022/12/02 06:10:44;;;;;;;15.87;8.93;;;-1.60;99.90;;;;;;5009736;28;20227;-73
2022/12/02 06:13:19;;;;;;;13.80;8.93;;;-1.60;99.90;;;;;;5003212;28;20617;-77
2022/12/02 06:15:47;;;;;;;17.70;10.20;;;-1.60;99.90;;;;;;4997973;28;20208;-67
2022/12/02 06:18:15;;;;;;;14.07;8.57;;;-1.50;99.90;;;;;;4996424;28;20589;-69
2022/12/02 06:20:44;;;;;;;16.40;9.13;;;-1.40;99.90;;;;;;4993091;28;20254;-69
2022/12/02 06:23:14;;;;;;;17.13;12.32;;;-1.40;99.90;;;;;;4993012;28;20462;-67
2022/12/02 06:25:41;;;;;;;17.33;10.00;;;-1.50;99.90;;;;;;4996935;28;20230;-70
2022/12/02 06:28:22;;;;;;;18.47;9.73;;;-1.50;99.90;;;;;;4996706;28;20698;-69
2022/12/02 06:30:49;;;;;;;13.40;8.87;;;-1.50;99.90;;;;;;4995192;28;20208;-69
2022/12/02 06:33:25;;;;;;;15.90;9.00;;;-1.40;99.90;;;;;;4995330;28;20211;-68
2022/12/02 06:35:55;;;;;;;18.07;9.03;;;-1.40;99.90;;;;;;4996617;28;20274;-68
2022/12/02 06:38:29;;;;;;;16.40;8.60;;;-1.50;99.90;;;;;;5000275;28;20259;-67
2022/12/02 06:40:57;;;;;;;17.70;9.20;;;-1.50;99.90;;;;;;4997118;28;20278;-68
2022/12/02 06:43:27;;;;;;;15.27;9.23;;;-1.60;99.90;;;;;;5005040;28;20227;-66
2022/12/02 06:45:54;;;;;;;14.53;8.90;;;-1.60;99.90;;;;;;5008993;28;20199;-68
2022/12/02 06:48:27;;;;;;;15.33;9.60;;;-1.60;99.90;;;;;;4997984;28;20200;-66
2022/12/02 06:50:58;;;;;;;14.93;9.50;;;-1.70;99.90;;;;;;4996723;28;20206;-65
2022/12/02 06:53:32;;;;;;;18.63;9.20;;;-1.60;99.90;;;;;;5002419;28;20203;-65
2022/12/02 06:56:05;;;;;;;13.40;9.57;;;-1.60;99.90;;;;;;4999862;28;20678;-67
2022/12/02 06:58:39;;;;;;;16.07;9.63;;;-1.60;99.90;;;;;;5003483;28;20688;-64
2022/12/02 07:01:24;;;;;;;18.87;9.70;;;-1.60;99.90;;;;;;5007918;28;20711;-66
2022/12/02 07:04:14;;;;;;;16.30;9.60;;;-1.60;99.90;;;;;;5001510;28;20233;-67
2022/12/02 07:06:45;;;;;;;15.03;9.23;;;-1.60;99.90;;;;;;5009529;28;20207;-68
2022/12/02 07:09:15;;;;;;;17.83;10.43;;;-1.70;99.90;;;;;;5013546;28;20210;-67
2022/12/02 07:11:50;;;;;;;16.37;9.03;;;-1.70;99.90;;;;;;5003785;28;20206;-68
2022/12/02 07:14:25;;;;;;;17.27;9.17;;;-1.60;99.90;;;;;;5002461;28;20206;-65
2022/12/02 07:16:53;;;;;;;17.10;9.63;;;-1.60;99.90;;;;;;5022551;28;20243;-65
2022/12/02 07:19:22;;;;;;;17.27;10.10;;;-1.60;99.90;;;;;;5002215;28;20599;-68
2022/12/02 07:21:50;;;;;;;22.80;9.53;;;-1.60;99.90;;;;;;5010953;28;20231;-65
2022/12/02 07:24:21;;;;;;;17.77;9.73;;;-1.60;99.90;;;;;;5009843;28;20277;-66
2022/12/02 07:26:49;;;;;;;17.77;9.83;;;-1.60;99.90;;;;;;5003431;28;20327;-65
2022/12/02 07:29:25;;;;;;;17.67;10.13;;;-1.60;99.90;;;;;;5004803;28;20223;-68
2022/12/02 07:31:52;;;;;;;16.07;10.37;;;-1.60;99.90;;;;;;4999079;28;20210;-65
2022/12/02 07:34:19;;;;;;;17.43;10.63;;;-1.60;99.90;;;;;;4997820;28;20204;-64
2022/12/02 07:36:46;;;;;;;18.13;9.70;;;-1.50;99.90;;;;;;5000781;28;20212;-69
2022/12/02 07:39:14;;;;;;;16.30;9.80;;;-1.50;99.90;;;;;;4997801;28;20223;-67
2022/12/02 07:41:42;;;;;;;18.33;10.27;;;-1.50;99.90;;;;;;4998049;28;20224;-72
2022/12/02 07:44:08;;;;;;;19.63;10.53;;;-1.50;99.90;;;;;;4999979;28;20216;-66
2022/12/02 07:46:35;;;;;;;18.07;10.43;;;-1.60;99.90;;;;;;5004097;28;20214;-67
2022/12/02 07:49:02;;;;;;;18.10;10.47;;;-1.60;99.90;;;;;;5009745;28;20211;-67
2022/12/02 07:51:29;;;;;;;18.27;11.00;;;-1.60;99.90;;;;;;5006159;28;20741;-65
2022/12/02 07:53:56;;;;;;;21.23;11.10;;;-1.60;99.90;;;;;;5010215;28;20220;-66
2022/12/02 07:56:24;;;;;;;18.67;11.17;;;-1.50;99.90;;;;;;5000003;28;20215;-65
2022/12/02 07:58:51;;;;;;;18.17;10.90;;;-1.50;99.90;;;;;;5003599;28;20228;-64
2022/12/02 08:01:17;;;;;;;20.60;11.63;;;-1.60;99.90;;;;;;5008754;28;20232;-68
2022/12/02 08:03:44;;;;;;;17.33;10.33;;;-1.60;99.90;;;;;;5014088;28;20703;-65
2022/12/02 08:06:11;;;;;;;19.63;10.93;;;-1.60;99.90;;;;;;5005398;28;20210;-67
2022/12/02 08:08:38;;;;;;;17.73;11.03;;;-1.70;99.90;;;;;;4991971;28;20214;-67
2022/12/02 08:11:05;;;;;;;21.37;10.57;;;-1.70;99.90;;;;;;4998940;28;20552;-65
2022/12/02 08:13:33;;;;;;;16.90;10.47;;;-1.70;99.90;;;;;;4992726;28;20212;-72
2022/12/02 08:16:00;;;;;;;19.00;10.83;;;-1.70;99.90;;;;;;4993443;28;20207;-67
2022/12/02 08:18:26;;;;;;;21.07;11.53;;;-1.70;99.90;;;;;;5005331;28;20231;-66
2022/12/02 08:20:53;;;;;;;20.03;10.80;;;-1.60;99.90;;;;;;5012245;28;20583;-65
2022/12/02 08:23:20;;;;;;;20.80;11.20;;;-1.70;99.90;;;;;;5013875;28;20579;-68
2022/12/02 08:25:47;;;;;;;18.83;10.93;;;-1.70;99.90;;;;;;5013692;28;20204;-65
2022/12/02 08:28:14;;;;;;;20.17;11.47;;;-1.60;99.90;;;;;;5015800;28;20215;-66
2022/12/02 08:30:42;;;;;;;25.00;11.07;;;-1.60;99.90;;;;;;4996097;28;20579;-65
2022/12/02 08:33:09;;;;;;;23.97;11.77;;;-1.60;99.90;;;;;;4996474;28;20208;-67
2022/12/02 08:35:38;;;;;;;21.53;11.83;;;-1.60;99.90;;;;;;4990135;28;20227;-67
2022/12/02 08:38:05;;;;;;;23.10;11.67;;;-1.60;99.90;;;;;;4991776;28;20645;-68
2022/12/02 08:40:33;;;;;;;23.40;11.00;;;-1.60;99.90;;;;;;5006074;28;20664;-67
2022/12/02 08:43:00;;;;;;;19.60;11.07;;;-1.60;99.90;;;;;;5009198;28;20211;-66
2022/12/02 08:45:27;;;;;;;21.03;12.13;;;-1.60;99.90;;;;;;5001173;28;20219;-66
2022/12/02 08:47:56;;;;;;;17.20;10.50;;;-1.60;99.90;;;;;;4994687;28;20215;-67
2022/12/02 08:50:23;;;;;;;21.13;11.77;;;-1.60;99.90;;;;;;4994711;28;20203;-67
2022/12/02 08:52:49;;;;;;;18.93;10.03;;;-1.70;99.90;;;;;;4990197;28;20215;-66
2022/12/02 08:55:16;;;;;;;18.43;10.93;;;-1.60;99.90;;;;;;4993225;28;20212;-67
2022/12/02 08:57:43;;;;;;;19.93;11.20;;;-1.70;99.90;;;;;;4997328;28;20211;-66
2022/12/02 09:00:11;;;;;;;24.03;12.47;;;-1.70;99.90;;;;;;4997386;28;20661;-67
2022/12/02 09:02:38;;;;;;;19.13;11.37;;;-1.70;99.90;;;;;;4997164;28;20243;-66
2022/12/02 09:05:06;;;;;;;18.50;11.00;;;-1.80;99.90;;;;;;4991268;28;20208;-68
2022/12/02 09:07:33;;;;;;;19.47;11.83;;;-1.80;99.90;;;;;;4992993;28;20226;-67
2022/12/02 09:10:01;;;;;;;20.97;11.73;;;-1.80;99.90;;;;;;4990176;28;20207;-68
2022/12/02 09:12:27;;;;;;;20.40;11.67;;;-1.80;99.90;;;;;;4992737;28;20207;-68
2022/12/02 09:14:54;;;;;;;22.30;12.13;;;-1.80;99.90;;;;;;4990922;28;20207;-67
2022/12/02 09:17:21;;;;;;;19.97;12.13;;;-1.80;99.90;;;;;;4992706;28;20214;-69
2022/12/02 09:19:48;;;;;;;21.03;11.90;;;-1.80;99.90;;;;;;4992019;28;20236;-67
2022/12/02 09:22:16;;;;;;;22.77;13.43;;;-1.80;99.90;;;;;;4997212;28;20227;-68
2022/12/02 09:24:43;;;;;;;22.60;12.80;;;-1.80;99.90;;;;;;4991912;28;20208;-67
2022/12/02 09:27:10;;;;;;;22.87;13.20;;;-1.80;99.90;;;;;;4990821;28;20564;-66
2022/12/02 09:29:37;;;;;;;26.70;11.83;;;-1.80;99.90;;;;;;4992553;28;20638;-67
2022/12/02 09:32:04;;;;;;;19.07;11.63;;;-1.80;99.90;;;;;;4989566;28;20227;-67
2022/12/02 09:34:30;;;;;;;21.13;12.00;;;-1.80;99.90;;;;;;4990364;28;20200;-67
2022/12/02 09:36:57;;;;;;;22.87;12.77;;;-1.80;99.90;;;;;;4991225;28;20303;-69
2022/12/02 09:39:25;;;;;;;23.47;12.60;;;-1.80;99.90;;;;;;4989679;28;20219;-69
2022/12/02 09:41:52;;;;;;;20.97;12.40;;;-1.80;99.90;;;;;;4992389;28;20583;-67
2022/12/02 09:44:19;;;;;;;23.97;13.77;;;-1.80;99.90;;;;;;4989813;28;20230;-70
2022/12/02 09:46:46;;;;;;;18.97;11.10;;;-1.80;99.90;;;;;;4991121;28;20230;-68
2022/12/02 09:49:13;;;;;;;22.83;13.13;;;-1.80;99.90;;;;;;4994091;28;20219;-68
2022/12/02 09:51:40;;;;;;;23.90;13.57;;;-1.80;99.90;;;;;;4984276;28;20676;-69
2022/12/02 09:54:07;;;;;;;27.43;13.60;;;-1.80;99.90;;;;;;4992490;28;20675;-69
2022/12/02 09:56:35;;;;;;;23.07;11.80;;;-1.80;99.90;;;;;;4985755;28;20223;-67
2022/12/02 09:59:11;;;;;;;23.30;13.27;;;-1.90;99.90;;;;;;5002797;28;20238;-66
2022/12/02 10:01:40;;;;;;;21.47;12.80;;;-1.90;99.90;;;;;;4996941;28;20207;-68
2022/12/02 10:04:09;;;;;;;25.10;13.57;;;-1.90;99.90;;;;;;4992839;28;20524;-69
2022/12/02 10:06:35;;;;;;;23.00;13.20;;;-1.50;99.90;;;;;;5005988;28;20211;-69
2022/12/02 10:09:02;;;;;;;22.20;12.87;;;-1.90;99.90;;;;;;4997096;28;20562;-68
2022/12/02 10:11:32;;;;;;;26.60;14.33;;;-1.80;99.90;;;;;;4997587;28;20204;-67
2022/12/02 10:14:05;;;;;;;24.27;13.57;;;-1.80;99.90;;;;;;4991527;28;20217;-69
2022/12/02 10:16:34;;;;;;;24.07;13.37;;;-1.90;99.90;;;;;;5000625;28;20446;-68
2022/12/02 10:19:03;;;;;;;24.67;13.97;;;-1.90;99.90;;;;;;4991120;28;20251;-65
2022/12/02 10:21:30;;;;;;;27.03;15.03;;;-2.00;99.90;;;;;;5001626;28;20635;-67
2022/12/02 10:23:58;;;;;;;21.07;13.10;;;-1.90;99.90;;;;;;5008895;28;20674;-68
2022/12/02 10:26:25;;;;;;;23.67;12.43;;;-1.90;99.90;;;;;;5004443;28;20207;-69
2022/12/02 10:29:02;;;;;;;27.53;14.47;;;-2.00;99.90;;;;;;5006765;28;20211;-69
2022/12/02 10:31:29;;;;;;;21.77;12.40;;;-2.00;99.90;;;;;;4997666;28;20558;-67
2022/12/02 10:33:59;;;;;;;23.00;13.93;;;-1.90;99.90;;;;;;4994668;28;20211;-66
2022/12/02 10:36:37;;;;;;;25.17;15.40;;;-1.90;99.90;;;;;;4986686;28;20255;-67
2022/12/02 10:39:21;;;;;;;22.40;13.03;;;-1.90;99.90;;;;;;4988719;28;20228;-68
2022/12/02 10:41:48;;;;;;;26.70;13.20;;;-1.80;99.90;;;;;;4993907;28;20578;-68
2022/12/02 10:44:18;;;;;;;31.77;14.87;;;-1.80;99.90;;;;;;4991778;28;20219;-68
2022/12/02 10:46:46;;;;;;;25.50;13.03;;;-1.80;99.90;;;;;;4993512;28;20740;-68
2022/12/02 10:49:25;;;;;;;32.13;14.77;;;-1.80;99.90;;;;;;4990537;28;20207;-69
2022/12/02 10:51:54;;;;;;;24.53;13.43;;;-1.80;99.90;;;;;;4999416;28;20627;-67
2022/12/02 10:54:25;;;;;;;30.00;15.13;;;-1.80;99.90;;;;;;4990825;28;20266;-71
2022/12/02 10:56:52;;;;;;;23.53;14.67;;;-1.80;99.90;;;;;;5005887;28;20219;-68
2022/12/02 10:59:20;;;;;;;26.70;13.43;;;-1.80;99.90;;;;;;5003927;28;20235;-72
2022/12/02 11:01:47;;;;;;;26.97;14.73;;;-1.80;99.90;;;;;;4997181;28;20208;-71
2022/12/02 11:04:15;;;;;;;26.90;14.33;;;-1.90;99.90;;;;;;5005726;28;20712;-71
2022/12/02 11:06:43;;;;;;;25.80;14.93;;;-1.80;99.90;;;;;;5000960;28;20218;-74
2022/12/02 11:09:16;;;;;;;26.30;14.67;;;-1.80;99.90;;;;;;5001953;28;20200;-68
2022/12/02 11:11:42;;;;;;;25.60;14.20;;;-1.80;99.90;;;;;;4993845;28;20200;-68
2022/12/02 11:14:12;;;;;;;22.63;13.53;;;-1.80;99.90;;;;;;5007375;28;20218;-71
2022/12/02 11:17:03;;;;;;;25.10;13.43;;;-1.80;99.90;;;;;;5000938;28;20211;-70
2022/12/02 11:19:45;;;;;;;24.53;13.13;;;-1.10;99.90;;;;;;4997303;28;20223;-71
2022/12/02 11:22:47;;;;;;;22.63;13.67;;;-1.80;99.90;;;;;;5001673;28;20291;-68
2022/12/02 11:26:03;;;;;;;21.80;13.33;;;-1.70;99.90;;;;;;5000265;28;20258;-64
2022/12/02 11:28:59;;;;;;;22.93;13.13;;;-1.70;99.90;;;;;;4949978;29;20706;-67
2022/12/02 11:31:26;;;;;;;24.10;14.33;;;-1.80;99.90;;;;;;4991162;28;20204;-70
2022/12/02 11:34:03;;;;;;;22.37;13.63;;;-1.80;99.90;;;;;;4997829;28;20204;-66
2022/12/02 11:36:32;;;;;;;25.97;14.63;;;-1.80;99.90;;;;;;5006123;28;20214;-65
2022/12/02 11:39:02;;;;;;;25.20;14.50;;;-1.70;99.90;;;;;;5009289;28;20556;-70
2022/12/02 11:41:30;;;;;;;25.00;13.87;;;-1.70;99.90;;;;;;4995482;28;20429;-72
2022/12/02 11:44:22;;;;;;;24.10;14.53;;;-1.70;99.90;;;;;;4997064;28;20220;-68
2022/12/02 11:46:50;;;;;;;26.50;14.77;;;-1.70;99.90;;;;;;4997597;28;20196;-68
2022/12/02 11:52:20;;;;;;;26.20;13.93;;;-1.70;99.90;;;;;;5123048;27;20614;-67
2022/12/02 11:54:51;;;;;;;22.80;13.83;;;-1.70;99.90;;;;;;5104678;28;20196;-68
2022/12/02 11:57:21;;;;;;;26.47;13.33;;;-1.60;99.90;;;;;;5106961;28;20214;-68
2022/12/02 11:59:48;;;;;;;26.63;15.43;;;-1.60;99.90;;;;;;5102536;28;20242;-67
2022/12/02 12:02:17;;;;;;;26.10;14.37;;;-1.70;99.90;;;;;;5109365;28;20208;-67
2022/12/02 12:04:44;;;;;;;31.03;15.63;;;-1.70;99.90;;;;;;5106943;27;20207;-69
2022/12/02 12:07:12;;;;;;;24.77;13.87;;;-1.70;99.90;;;;;;5104522;28;20214;-68
2022/12/02 12:09:40;;;;;;;25.27;15.03;;;-1.60;99.90;;;;;;5103534;28;20207;-69
2022/12/02 12:12:13;;;;;;;26.30;14.63;;;-1.70;99.90;;;;;;5107716;28;20654;-68
2022/12/02 12:14:57;;;;;;;28.27;13.53;;;-1.70;99.90;;;;;;5104032;28;20838;-68
2022/12/02 12:17:44;;;;;;;26.77;14.57;;;-1.70;99.90;;;;;;5100235;28;20571;-68
2022/12/02 12:20:43;;;;;;;25.00;13.67;;;-1.80;99.90;;;;;;5105527;28;20599;-68
2022/12/02 12:23:30;;;;;;;26.30;13.70;;;-1.80;99.90;;;;;;5105170;28;20200;-68
2022/12/02 12:25:59;;;;;;;23.97;13.10;;;-1.80;99.90;;;;;;5104510;28;20210;-68
2022/12/02 12:28:27;;;;;;;24.93;13.30;;;-1.80;99.90;;;;;;5102333;28;20219;-68
2022/12/02 12:30:54;;;;;;;25.37;13.50;;;-1.80;99.90;;;;;;5105096;28;20226;-69
2022/12/02 12:33:21;;;;;;;25.30;13.70;;;-1.80;99.90;;;;;;5097540;28;20218;-67
2022/12/02 12:35:48;;;;;;;25.50;13.73;;;-1.80;99.90;;;;;;5098249;28;20224;-69
2022/12/02 12:38:15;;;;;;;27.77;13.70;;;-1.80;99.90;;;;;;5101187;28;20292;-69
2022/12/02 12:40:41;;;;;;;23.30;13.47;;;-1.80;99.90;;;;;;5102867;28;20201;-69
2022/12/02 12:43:10;;;;;;;26.07;13.87;;;-1.90;99.90;;;;;;5101623;28;20219;-67
2022/12/02 12:45:36;;;;;;;24.63;13.50;;;-1.80;99.90;;;;;;5109520;28;20982;-70